sensor_id;sensor_type;location;lat;lon;timestamp;P1;durP1;ratioP1;P2;durP2;ratioP2
64684;SDS011;51109;47.414;18.954;2023-07-02T00:01:44;19.35;;;13.52;;
64684;SDS011;51109;47.414;18.954;2023-07-02T00:04:11;20.65;;;15.20;;
64684;SDS011;51109;47.414;18.954;2023-07-02T00:06:44;21.20;;;13.48;;
64684;SDS011;51109;47.414;18.954;2023-07-02T00:09:10;18.55;;;12.98;;
64684;SDS011;51109;47.414;18.954;2023-07-02T00:11:37;17.77;;;13.35;;
64684;SDS011;51109;47.414;18.954;2023-07-02T00:14:04;17.10;;;13.02;;
64684;SDS011;51109;47.414;18.954;2023-07-02T00:16:31;20.95;;;13.40;;
64684;SDS011;51109;47.414;18.954;2023-07-02T00:18:57;17.67;;;13.13;;
64684;SDS011;51109;47.414;18.954;2023-07-02T00:21:25;18.67;;;13.25;;
64684;SDS011;51109;47.414;18.954;2023-07-02T00:23:54;20.63;;;13.15;;
64684;SDS011;51109;47.414;18.954;2023-07-02T00:26:23;19.10;;;12.95;;
64684;SDS011;51109;47.414;18.954;2023-07-02T00:28:50;19.88;;;12.90;;
64684;SDS011;51109;47.414;18.954;2023-07-02T00:31:16;23.38;;;13.32;;
64684;SDS011;51109;47.414;18.954;2023-07-02T00:33:42;16.83;;;13.10;;
64684;SDS011;51109;47.414;18.954;2023-07-02T00:36:08;17.52;;;13.70;;
64684;SDS011;51109;47.414;18.954;2023-07-02T00:38:44;19.00;;;12.32;;
64684;SDS011;51109;47.414;18.954;2023-07-02T00:41:11;24.38;;;12.68;;
64684;SDS011;51109;47.414;18.954;2023-07-02T00:43:37;17.52;;;13.05;;
64684;SDS011;51109;47.414;18.954;2023-07-02T00:46:15;20.58;;;14.45;;
64684;SDS011;51109;47.414;18.954;2023-07-02T00:48:46;16.65;;;12.60;;
64684;SDS011;51109;47.414;18.954;2023-07-02T00:51:14;19.33;;;13.57;;
64684;SDS011;51109;47.414;18.954;2023-07-02T00:53:43;18.20;;;12.50;;
64684;SDS011;51109;47.414;18.954;2023-07-02T00:56:10;18.27;;;13.35;;
64684;SDS011;51109;47.414;18.954;2023-07-02T00:58:38;18.58;;;13.02;;
64684;SDS011;51109;47.414;18.954;2023-07-02T01:01:06;16.50;;;11.43;;
64684;SDS011;51109;47.414;18.954;2023-07-02T01:03:32;23.27;;;14.02;;
64684;SDS011;51109;47.414;18.954;2023-07-02T01:06:02;18.90;;;12.88;;
64684;SDS011;51109;47.414;18.954;2023-07-02T01:08:28;19.92;;;13.07;;
64684;SDS011;51109;47.414;18.954;2023-07-02T01:10:54;19.90;;;13.27;;
64684;SDS011;51109;47.414;18.954;2023-07-02T01:13:21;16.52;;;12.10;;
64684;SDS011;51109;47.414;18.954;2023-07-02T01:15:49;16.33;;;12.50;;
64684;SDS011;51109;47.414;18.954;2023-07-02T01:18:15;16.85;;;12.27;;
64684;SDS011;51109;47.414;18.954;2023-07-02T01:20:42;16.98;;;12.48;;
64684;SDS011;51109;47.414;18.954;2023-07-02T01:23:08;18.20;;;12.77;;
64684;SDS011;51109;47.414;18.954;2023-07-02T01:25:35;15.73;;;11.75;;
64684;SDS011;51109;47.414;18.954;2023-07-02T01:28:02;17.25;;;12.30;;
64684;SDS011;51109;47.414;18.954;2023-07-02T01:30:28;14.95;;;11.68;;
64684;SDS011;51109;47.414;18.954;2023-07-02T01:32:54;19.38;;;12.35;;
64684;SDS011;51109;47.414;18.954;2023-07-02T01:35:20;18.40;;;12.45;;
64684;SDS011;51109;47.414;18.954;2023-07-02T01:37:46;18.58;;;11.85;;
64684;SDS011;51109;47.414;18.954;2023-07-02T01:40:12;17.20;;;11.80;;
64684;SDS011;51109;47.414;18.954;2023-07-02T01:42:38;16.33;;;11.65;;
64684;SDS011;51109;47.414;18.954;2023-07-02T01:45:04;15.90;;;11.38;;
64684;SDS011;51109;47.414;18.954;2023-07-02T01:47:30;16.40;;;11.77;;
64684;SDS011;51109;47.414;18.954;2023-07-02T01:49:56;15.98;;;10.82;;
64684;SDS011;51109;47.414;18.954;2023-07-02T01:52:22;18.70;;;10.57;;
64684;SDS011;51109;47.414;18.954;2023-07-02T01:54:48;15.80;;;11.07;;
64684;SDS011;51109;47.414;18.954;2023-07-02T01:57:14;15.38;;;10.52;;
64684;SDS011;51109;47.414;18.954;2023-07-02T01:59:40;13.63;;;10.13;;
64684;SDS011;51109;47.414;18.954;2023-07-02T02:02:05;15.93;;;10.30;;
64684;SDS011;51109;47.414;18.954;2023-07-02T02:04:31;15.98;;;11.18;;
64684;SDS011;51109;47.414;18.954;2023-07-02T02:06:57;16.80;;;11.98;;
64684;SDS011;51109;47.414;18.954;2023-07-02T02:09:23;16.40;;;11.65;;
64684;SDS011;51109;47.414;18.954;2023-07-02T02:11:49;15.73;;;11.38;;
64684;SDS011;51109;47.414;18.954;2023-07-02T02:14:16;14.77;;;10.68;;
64684;SDS011;51109;47.414;18.954;2023-07-02T02:16:42;16.23;;;11.43;;
64684;SDS011;51109;47.414;18.954;2023-07-02T02:19:10;14.43;;;11.27;;
64684;SDS011;51109;47.414;18.954;2023-07-02T02:21:37;17.25;;;11.10;;
64684;SDS011;51109;47.414;18.954;2023-07-02T02:24:03;14.40;;;10.10;;
64684;SDS011;51109;47.414;18.954;2023-07-02T02:26:30;13.65;;;9.35;;
64684;SDS011;51109;47.414;18.954;2023-07-02T02:28:56;16.33;;;10.02;;
64684;SDS011;51109;47.414;18.954;2023-07-02T02:31:22;18.52;;;10.32;;
64684;SDS011;51109;47.414;18.954;2023-07-02T02:33:48;16.10;;;9.48;;
64684;SDS011;51109;47.414;18.954;2023-07-02T02:36:13;11.05;;;8.50;;
64684;SDS011;51109;47.414;18.954;2023-07-02T02:38:39;12.52;;;8.95;;
64684;SDS011;51109;47.414;18.954;2023-07-02T02:41:05;11.23;;;8.45;;
64684;SDS011;51109;47.414;18.954;2023-07-02T02:43:33;13.15;;;8.38;;
64684;SDS011;51109;47.414;18.954;2023-07-02T02:45:59;9.57;;;7.90;;
64684;SDS011;51109;47.414;18.954;2023-07-02T02:48:25;13.75;;;8.60;;
64684;SDS011;51109;47.414;18.954;2023-07-02T02:50:51;11.40;;;8.15;;
64684;SDS011;51109;47.414;18.954;2023-07-02T02:53:17;11.32;;;7.57;;
64684;SDS011;51109;47.414;18.954;2023-07-02T02:55:43;9.80;;;7.13;;
64684;SDS011;51109;47.414;18.954;2023-07-02T02:58:09;10.30;;;7.63;;
64684;SDS011;51109;47.414;18.954;2023-07-02T03:00:34;12.73;;;8.23;;
64684;SDS011;51109;47.414;18.954;2023-07-02T03:03:00;12.80;;;8.20;;
64684;SDS011;51109;47.414;18.954;2023-07-02T03:05:28;11.60;;;7.47;;
64684;SDS011;51109;47.414;18.954;2023-07-02T03:07:54;10.90;;;8.32;;
64684;SDS011;51109;47.414;18.954;2023-07-02T03:10:20;11.45;;;8.05;;
64684;SDS011;51109;47.414;18.954;2023-07-02T03:12:47;11.35;;;7.22;;
64684;SDS011;51109;47.414;18.954;2023-07-02T03:15:13;11.85;;;7.50;;
64684;SDS011;51109;47.414;18.954;2023-07-02T03:17:39;10.82;;;7.45;;
64684;SDS011;51109;47.414;18.954;2023-07-02T03:20:05;10.50;;;7.40;;
64684;SDS011;51109;47.414;18.954;2023-07-02T03:22:34;8.82;;;6.53;;
64684;SDS011;51109;47.414;18.954;2023-07-02T03:25:00;12.63;;;7.53;;
64684;SDS011;51109;47.414;18.954;2023-07-02T03:27:26;9.18;;;6.43;;
64684;SDS011;51109;47.414;18.954;2023-07-02T03:29:52;10.05;;;7.10;;
64684;SDS011;51109;47.414;18.954;2023-07-02T03:32:18;11.88;;;7.30;;
64684;SDS011;51109;47.414;18.954;2023-07-02T03:34:44;11.25;;;6.97;;
64684;SDS011;51109;47.414;18.954;2023-07-02T03:37:10;9.93;;;7.38;;
64684;SDS011;51109;47.414;18.954;2023-07-02T03:39:36;9.43;;;6.95;;
64684;SDS011;51109;47.414;18.954;2023-07-02T03:42:02;11.13;;;6.47;;
64684;SDS011;51109;47.414;18.954;2023-07-02T03:44:27;11.95;;;6.55;;
64684;SDS011;51109;47.414;18.954;2023-07-02T03:46:53;10.32;;;6.32;;
64684;SDS011;51109;47.414;18.954;2023-07-02T03:49:19;10.68;;;5.97;;
64684;SDS011;51109;47.414;18.954;2023-07-02T03:51:45;10.25;;;6.45;;
64684;SDS011;51109;47.414;18.954;2023-07-02T03:54:11;8.02;;;5.95;;
64684;SDS011;51109;47.414;18.954;2023-07-02T03:56:36;9.00;;;6.13;;
64684;SDS011;51109;47.414;18.954;2023-07-02T03:59:02;7.32;;;6.03;;
64684;SDS011;51109;47.414;18.954;2023-07-02T04:01:28;11.63;;;6.25;;
64684;SDS011;51109;47.414;18.954;2023-07-02T04:03:54;7.07;;;6.05;;
64684;SDS011;51109;47.414;18.954;2023-07-02T04:06:21;8.60;;;5.95;;
64684;SDS011;51109;47.414;18.954;2023-07-02T04:08:47;11.68;;;5.90;;
64684;SDS011;51109;47.414;18.954;2023-07-02T04:11:12;9.30;;;5.57;;
64684;SDS011;51109;47.414;18.954;2023-07-02T04:13:38;7.50;;;5.50;;
64684;SDS011;51109;47.414;18.954;2023-07-02T04:16:05;9.88;;;6.10;;
64684;SDS011;51109;47.414;18.954;2023-07-02T04:18:31;10.20;;;6.00;;
64684;SDS011;51109;47.414;18.954;2023-07-02T04:20:57;8.93;;;6.00;;
64684;SDS011;51109;47.414;18.954;2023-07-02T04:23:24;8.02;;;5.32;;
64684;SDS011;51109;47.414;18.954;2023-07-02T04:25:50;9.73;;;6.07;;
64684;SDS011;51109;47.414;18.954;2023-07-02T04:28:16;9.23;;;5.60;;
64684;SDS011;51109;47.414;18.954;2023-07-02T04:30:42;9.10;;;5.90;;
64684;SDS011;51109;47.414;18.954;2023-07-02T04:33:08;8.35;;;5.40;;
64684;SDS011;51109;47.414;18.954;2023-07-02T04:35:34;8.63;;;5.80;;
64684;SDS011;51109;47.414;18.954;2023-07-02T04:38:02;9.18;;;6.03;;
64684;SDS011;51109;47.414;18.954;2023-07-02T04:40:28;9.20;;;5.78;;
64684;SDS011;51109;47.414;18.954;2023-07-02T04:42:54;6.55;;;5.05;;
64684;SDS011;51109;47.414;18.954;2023-07-02T04:45:27;9.00;;;5.55;;
64684;SDS011;51109;47.414;18.954;2023-07-02T04:48:02;5.80;;;5.00;;
64684;SDS011;51109;47.414;18.954;2023-07-02T04:50:31;10.02;;;5.55;;
64684;SDS011;51109;47.414;18.954;2023-07-02T04:52:57;6.55;;;5.32;;
64684;SDS011;51109;47.414;18.954;2023-07-02T04:55:23;7.40;;;4.68;;
64684;SDS011;51109;47.414;18.954;2023-07-02T04:57:48;10.85;;;5.38;;
64684;SDS011;51109;47.414;18.954;2023-07-02T05:00:14;9.23;;;5.60;;
64684;SDS011;51109;47.414;18.954;2023-07-02T05:02:41;11.07;;;4.82;;
64684;SDS011;51109;47.414;18.954;2023-07-02T05:05:06;7.85;;;4.93;;
64684;SDS011;51109;47.414;18.954;2023-07-02T05:07:32;6.35;;;4.90;;
64684;SDS011;51109;47.414;18.954;2023-07-02T05:09:58;9.27;;;5.32;;
64684;SDS011;51109;47.414;18.954;2023-07-02T05:12:24;6.05;;;4.85;;
64684;SDS011;51109;47.414;18.954;2023-07-02T05:14:50;7.35;;;4.88;;
64684;SDS011;51109;47.414;18.954;2023-07-02T05:17:16;6.68;;;4.47;;
64684;SDS011;51109;47.414;18.954;2023-07-02T05:19:42;6.35;;;5.05;;
64684;SDS011;51109;47.414;18.954;2023-07-02T05:22:08;9.32;;;5.22;;
64684;SDS011;51109;47.414;18.954;2023-07-02T05:24:34;13.02;;;6.55;;
64684;SDS011;51109;47.414;18.954;2023-07-02T05:27:00;8.05;;;5.22;;
64684;SDS011;51109;47.414;18.954;2023-07-02T05:29:26;9.50;;;5.05;;
64684;SDS011;51109;47.414;18.954;2023-07-02T05:31:52;10.15;;;5.00;;
64684;SDS011;51109;47.414;18.954;2023-07-02T05:34:18;8.73;;;5.40;;
64684;SDS011;51109;47.414;18.954;2023-07-02T05:36:44;6.78;;;5.03;;
64684;SDS011;51109;47.414;18.954;2023-07-02T05:39:12;6.45;;;5.03;;
64684;SDS011;51109;47.414;18.954;2023-07-02T05:41:38;7.75;;;5.10;;
64684;SDS011;51109;47.414;18.954;2023-07-02T05:44:04;7.18;;;5.38;;
64684;SDS011;51109;47.414;18.954;2023-07-02T05:46:30;8.15;;;4.90;;
64684;SDS011;51109;47.414;18.954;2023-07-02T05:48:56;7.43;;;5.18;;
64684;SDS011;51109;47.414;18.954;2023-07-02T05:51:23;7.50;;;5.22;;
64684;SDS011;51109;47.414;18.954;2023-07-02T05:53:50;9.07;;;5.38;;
64684;SDS011;51109;47.414;18.954;2023-07-02T05:56:16;10.68;;;5.13;;
64684;SDS011;51109;47.414;18.954;2023-07-02T05:58:42;8.82;;;5.13;;
64684;SDS011;51109;47.414;18.954;2023-07-02T06:01:08;7.35;;;5.20;;
64684;SDS011;51109;47.414;18.954;2023-07-02T06:03:34;8.32;;;4.72;;
64684;SDS011;51109;47.414;18.954;2023-07-02T06:05:59;5.97;;;4.53;;
64684;SDS011;51109;47.414;18.954;2023-07-02T06:08:25;5.13;;;4.45;;
64684;SDS011;51109;47.414;18.954;2023-07-02T06:10:52;7.72;;;4.90;;
64684;SDS011;51109;47.414;18.954;2023-07-02T06:13:18;8.18;;;5.05;;
64684;SDS011;51109;47.414;18.954;2023-07-02T06:15:43;7.97;;;4.60;;
64684;SDS011;51109;47.414;18.954;2023-07-02T06:18:10;6.63;;;4.30;;
64684;SDS011;51109;47.414;18.954;2023-07-02T06:20:36;6.65;;;4.80;;
64684;SDS011;51109;47.414;18.954;2023-07-02T06:23:01;5.05;;;4.40;;
64684;SDS011;51109;47.414;18.954;2023-07-02T06:25:27;9.10;;;4.18;;
64684;SDS011;51109;47.414;18.954;2023-07-02T06:27:53;5.72;;;4.43;;
64684;SDS011;51109;47.414;18.954;2023-07-02T06:30:29;4.93;;;4.45;;
64684;SDS011;51109;47.414;18.954;2023-07-02T06:32:55;4.35;;;3.97;;
64684;SDS011;51109;47.414;18.954;2023-07-02T06:35:21;5.88;;;4.38;;
64684;SDS011;51109;47.414;18.954;2023-07-02T06:37:47;6.53;;;4.55;;
64684;SDS011;51109;47.414;18.954;2023-07-02T06:40:13;8.32;;;5.57;;
64684;SDS011;51109;47.414;18.954;2023-07-02T06:42:39;6.10;;;4.28;;
64684;SDS011;51109;47.414;18.954;2023-07-02T06:45:05;5.55;;;3.92;;
64684;SDS011;51109;47.414;18.954;2023-07-02T06:47:32;8.82;;;4.28;;
64684;SDS011;51109;47.414;18.954;2023-07-02T06:49:58;5.40;;;4.13;;
64684;SDS011;51109;47.414;18.954;2023-07-02T06:52:24;8.43;;;5.10;;
64684;SDS011;51109;47.414;18.954;2023-07-02T06:54:50;7.55;;;4.50;;
64684;SDS011;51109;47.414;18.954;2023-07-02T06:57:16;5.18;;;4.13;;
64684;SDS011;51109;47.414;18.954;2023-07-02T06:59:42;6.85;;;4.75;;
64684;SDS011;51109;47.414;18.954;2023-07-02T07:02:08;6.20;;;4.32;;
64684;SDS011;51109;47.414;18.954;2023-07-02T07:04:34;7.50;;;4.65;;
64684;SDS011;51109;47.414;18.954;2023-07-02T07:07:00;5.60;;;4.57;;
64684;SDS011;51109;47.414;18.954;2023-07-02T07:09:28;4.97;;;4.35;;
64684;SDS011;51109;47.414;18.954;2023-07-02T07:11:54;6.20;;;4.25;;
64684;SDS011;51109;47.414;18.954;2023-07-02T07:14:20;5.88;;;4.90;;
64684;SDS011;51109;47.414;18.954;2023-07-02T07:16:45;5.75;;;4.72;;
64684;SDS011;51109;47.414;18.954;2023-07-02T07:19:11;7.40;;;4.28;;
64684;SDS011;51109;47.414;18.954;2023-07-02T07:21:37;5.55;;;3.97;;
64684;SDS011;51109;47.414;18.954;2023-07-02T07:24:03;5.50;;;3.92;;
64684;SDS011;51109;47.414;18.954;2023-07-02T07:26:29;4.30;;;3.83;;
64684;SDS011;51109;47.414;18.954;2023-07-02T07:28:55;6.18;;;4.43;;
64684;SDS011;51109;47.414;18.954;2023-07-02T07:31:23;7.03;;;3.92;;
64684;SDS011;51109;47.414;18.954;2023-07-02T07:33:49;5.30;;;4.00;;
64684;SDS011;51109;47.414;18.954;2023-07-02T07:36:15;8.93;;;3.88;;
64684;SDS011;51109;47.414;18.954;2023-07-02T07:38:43;5.78;;;4.03;;
64684;SDS011;51109;47.414;18.954;2023-07-02T07:41:09;6.68;;;3.53;;
64684;SDS011;51109;47.414;18.954;2023-07-02T07:43:35;3.88;;;3.45;;
64684;SDS011;51109;47.414;18.954;2023-07-02T07:46:00;4.57;;;3.38;;
64684;SDS011;51109;47.414;18.954;2023-07-02T07:48:26;6.72;;;3.75;;
64684;SDS011;51109;47.414;18.954;2023-07-02T07:50:52;4.95;;;3.50;;
64684;SDS011;51109;47.414;18.954;2023-07-02T07:53:18;4.30;;;3.90;;
64684;SDS011;51109;47.414;18.954;2023-07-02T07:55:44;7.80;;;3.90;;
64684;SDS011;51109;47.414;18.954;2023-07-02T07:58:10;6.57;;;4.03;;
64684;SDS011;51109;47.414;18.954;2023-07-02T08:00:35;4.80;;;4.15;;
64684;SDS011;51109;47.414;18.954;2023-07-02T08:03:02;5.28;;;4.38;;
64684;SDS011;51109;47.414;18.954;2023-07-02T08:05:29;5.63;;;3.70;;
64684;SDS011;51109;47.414;18.954;2023-07-02T08:07:56;6.53;;;4.38;;
64684;SDS011;51109;47.414;18.954;2023-07-02T08:10:22;9.05;;;3.78;;
64684;SDS011;51109;47.414;18.954;2023-07-02T08:12:49;4.90;;;3.90;;
64684;SDS011;51109;47.414;18.954;2023-07-02T08:15:17;4.80;;;4.00;;
64684;SDS011;51109;47.414;18.954;2023-07-02T08:17:43;5.88;;;3.90;;
64684;SDS011;51109;47.414;18.954;2023-07-02T08:20:09;5.07;;;3.70;;
64684;SDS011;51109;47.414;18.954;2023-07-02T08:22:38;5.43;;;3.92;;
64684;SDS011;51109;47.414;18.954;2023-07-02T08:25:05;5.03;;;3.65;;
64684;SDS011;51109;47.414;18.954;2023-07-02T08:27:32;3.80;;;3.42;;
64684;SDS011;51109;47.414;18.954;2023-07-02T08:29:58;6.30;;;4.22;;
64684;SDS011;51109;47.414;18.954;2023-07-02T08:32:23;7.93;;;3.95;;
64684;SDS011;51109;47.414;18.954;2023-07-02T08:34:49;6.35;;;3.95;;
64684;SDS011;51109;47.414;18.954;2023-07-02T08:37:20;4.43;;;3.90;;
64684;SDS011;51109;47.414;18.954;2023-07-02T08:39:46;4.65;;;4.10;;
64684;SDS011;51109;47.414;18.954;2023-07-02T08:42:14;4.20;;;3.60;;
64684;SDS011;51109;47.414;18.954;2023-07-02T08:44:41;6.13;;;3.72;;
64684;SDS011;51109;47.414;18.954;2023-07-02T08:47:07;6.70;;;3.75;;
64684;SDS011;51109;47.414;18.954;2023-07-02T08:49:34;5.25;;;3.88;;
64684;SDS011;51109;47.414;18.954;2023-07-02T08:51:59;5.85;;;3.92;;
64684;SDS011;51109;47.414;18.954;2023-07-02T08:54:25;4.50;;;3.60;;
64684;SDS011;51109;47.414;18.954;2023-07-02T08:56:51;4.97;;;4.28;;
64684;SDS011;51109;47.414;18.954;2023-07-02T08:59:17;5.55;;;4.45;;
64684;SDS011;51109;47.414;18.954;2023-07-02T09:04:18;5.70;;;3.55;;
64684;SDS011;51109;47.414;18.954;2023-07-02T09:06:46;8.77;;;4.00;;
64684;SDS011;51109;47.414;18.954;2023-07-02T09:09:13;9.95;;;4.15;;
64684;SDS011;51109;47.414;18.954;2023-07-02T09:11:51;5.68;;;4.30;;
64684;SDS011;51109;47.414;18.954;2023-07-02T09:14:29;7.32;;;4.60;;
64684;SDS011;51109;47.414;18.954;2023-07-02T09:17:02;4.70;;;4.22;;
64684;SDS011;51109;47.414;18.954;2023-07-02T09:19:29;5.53;;;4.40;;
64684;SDS011;51109;47.414;18.954;2023-07-02T09:21:57;4.85;;;4.25;;
64684;SDS011;51109;47.414;18.954;2023-07-02T09:24:27;8.25;;;4.60;;
64684;SDS011;51109;47.414;18.954;2023-07-02T09:26:55;6.03;;;4.60;;
64684;SDS011;51109;47.414;18.954;2023-07-02T09:29:23;4.32;;;3.92;;
64684;SDS011;51109;47.414;18.954;2023-07-02T09:32:05;8.60;;;4.40;;
64684;SDS011;51109;47.414;18.954;2023-07-02T09:34:35;5.70;;;4.18;;
64684;SDS011;51109;47.414;18.954;2023-07-02T09:37:03;7.25;;;4.78;;
64684;SDS011;51109;47.414;18.954;2023-07-02T09:39:31;4.50;;;3.78;;
64684;SDS011;51109;47.414;18.954;2023-07-02T09:41:58;6.80;;;4.82;;
64684;SDS011;51109;47.414;18.954;2023-07-02T09:44:29;4.47;;;4.07;;
64684;SDS011;51109;47.414;18.954;2023-07-02T09:47:01;8.73;;;5.65;;
64684;SDS011;51109;47.414;18.954;2023-07-02T09:49:31;5.97;;;4.00;;
64684;SDS011;51109;47.414;18.954;2023-07-02T09:52:05;5.10;;;4.20;;
64684;SDS011;51109;47.414;18.954;2023-07-02T09:54:35;6.63;;;4.20;;
64684;SDS011;51109;47.414;18.954;2023-07-02T09:57:02;9.43;;;4.57;;
64684;SDS011;51109;47.414;18.954;2023-07-02T09:59:28;8.90;;;4.03;;
64684;SDS011;51109;47.414;18.954;2023-07-02T10:01:55;9.05;;;3.88;;
64684;SDS011;51109;47.414;18.954;2023-07-02T10:04:22;5.43;;;4.28;;
64684;SDS011;51109;47.414;18.954;2023-07-02T10:09:35;4.68;;;3.72;;
64684;SDS011;51109;47.414;18.954;2023-07-02T10:15:11;4.72;;;4.30;;
64684;SDS011;51109;47.414;18.954;2023-07-02T10:17:54;10.13;;;4.18;;
64684;SDS011;51109;47.414;18.954;2023-07-02T10:20:30;6.47;;;4.05;;
64684;SDS011;51109;47.414;18.954;2023-07-02T10:22:58;5.88;;;3.15;;
64684;SDS011;51109;47.414;18.954;2023-07-02T10:25:27;4.60;;;3.70;;
64684;SDS011;51109;47.414;18.954;2023-07-02T10:27:58;6.32;;;4.28;;
64684;SDS011;51109;47.414;18.954;2023-07-02T10:33:06;6.75;;;3.65;;
64684;SDS011;51109;47.414;18.954;2023-07-02T10:35:34;6.25;;;3.88;;
64684;SDS011;51109;47.414;18.954;2023-07-02T10:38:00;4.30;;;3.90;;
64684;SDS011;51109;47.414;18.954;2023-07-02T10:40:26;4.40;;;3.70;;
64684;SDS011;51109;47.414;18.954;2023-07-02T10:42:52;7.90;;;4.07;;
64684;SDS011;51109;47.414;18.954;2023-07-02T10:45:19;5.32;;;3.88;;
64684;SDS011;51109;47.414;18.954;2023-07-02T10:47:45;5.75;;;3.53;;
64684;SDS011;51109;47.414;18.954;2023-07-02T10:50:20;6.25;;;3.63;;
64684;SDS011;51109;47.414;18.954;2023-07-02T10:52:48;5.80;;;3.70;;
64684;SDS011;51109;47.414;18.954;2023-07-02T10:55:17;4.18;;;3.40;;
64684;SDS011;51109;47.414;18.954;2023-07-02T10:57:44;4.05;;;3.45;;
64684;SDS011;51109;47.414;18.954;2023-07-02T11:00:10;7.03;;;4.07;;
64684;SDS011;51109;47.414;18.954;2023-07-02T11:02:39;5.82;;;3.53;;
64684;SDS011;51109;47.414;18.954;2023-07-02T11:05:06;7.53;;;3.58;;
64684;SDS011;51109;47.414;18.954;2023-07-02T11:07:40;8.93;;;3.75;;
64684;SDS011;51109;47.414;18.954;2023-07-02T11:10:07;4.10;;;3.42;;
64684;SDS011;51109;47.414;18.954;2023-07-02T11:12:34;6.07;;;4.00;;
64684;SDS011;51109;47.414;18.954;2023-07-02T11:15:10;5.03;;;3.40;;
64684;SDS011;51109;47.414;18.954;2023-07-02T11:17:37;5.55;;;3.78;;
64684;SDS011;51109;47.414;18.954;2023-07-02T11:20:06;6.57;;;3.97;;
64684;SDS011;51109;47.414;18.954;2023-07-02T11:22:35;6.85;;;4.20;;
64684;SDS011;51109;47.414;18.954;2023-07-02T11:25:08;5.18;;;3.88;;
64684;SDS011;51109;47.414;18.954;2023-07-02T11:27:45;4.18;;;3.80;;
64684;SDS011;51109;47.414;18.954;2023-07-02T11:30:11;5.03;;;3.53;;
64684;SDS011;51109;47.414;18.954;2023-07-02T11:32:56;4.82;;;3.83;;
64684;SDS011;51109;47.414;18.954;2023-07-02T11:35:22;4.57;;;3.47;;
64684;SDS011;51109;47.414;18.954;2023-07-02T11:38:00;5.97;;;4.10;;
64684;SDS011;51109;47.414;18.954;2023-07-02T11:40:26;4.97;;;3.75;;
64684;SDS011;51109;47.414;18.954;2023-07-02T11:42:51;4.57;;;3.28;;
64684;SDS011;51109;47.414;18.954;2023-07-02T11:45:17;6.68;;;3.55;;
64684;SDS011;51109;47.414;18.954;2023-07-02T11:47:43;6.70;;;3.45;;
64684;SDS011;51109;47.414;18.954;2023-07-02T11:50:09;3.47;;;3.17;;
64684;SDS011;51109;47.414;18.954;2023-07-02T11:52:35;4.72;;;3.50;;
64684;SDS011;51109;47.414;18.954;2023-07-02T11:55:01;4.68;;;3.90;;
64684;SDS011;51109;47.414;18.954;2023-07-02T11:57:27;5.35;;;3.58;;
64684;SDS011;51109;47.414;18.954;2023-07-02T11:59:53;5.40;;;3.70;;
64684;SDS011;51109;47.414;18.954;2023-07-02T12:02:19;3.65;;;3.33;;
64684;SDS011;51109;47.414;18.954;2023-07-02T12:04:45;5.13;;;3.05;;
64684;SDS011;51109;47.414;18.954;2023-07-02T12:07:11;5.85;;;3.28;;
64684;SDS011;51109;47.414;18.954;2023-07-02T12:09:38;4.47;;;3.58;;
64684;SDS011;51109;47.414;18.954;2023-07-02T12:12:04;3.55;;;2.88;;
64684;SDS011;51109;47.414;18.954;2023-07-02T12:14:31;3.30;;;2.80;;
64684;SDS011;51109;47.414;18.954;2023-07-02T12:16:56;4.15;;;2.78;;
64684;SDS011;51109;47.414;18.954;2023-07-02T12:19:22;3.28;;;2.97;;
64684;SDS011;51109;47.414;18.954;2023-07-02T12:21:48;6.68;;;3.00;;
64684;SDS011;51109;47.414;18.954;2023-07-02T12:24:14;7.25;;;3.40;;
64684;SDS011;51109;47.414;18.954;2023-07-02T12:26:40;7.78;;;3.10;;
64684;SDS011;51109;47.414;18.954;2023-07-02T12:29:07;7.72;;;3.17;;
64684;SDS011;51109;47.414;18.954;2023-07-02T12:31:33;5.15;;;3.25;;
64684;SDS011;51109;47.414;18.954;2023-07-02T12:33:59;4.80;;;3.13;;
64684;SDS011;51109;47.414;18.954;2023-07-02T12:36:25;3.75;;;2.85;;
64684;SDS011;51109;47.414;18.954;2023-07-02T12:38:51;9.85;;;3.55;;
64684;SDS011;51109;47.414;18.954;2023-07-02T12:41:16;2.88;;;2.40;;
64684;SDS011;51109;47.414;18.954;2023-07-02T12:43:42;6.57;;;2.70;;
64684;SDS011;51109;47.414;18.954;2023-07-02T12:46:08;4.50;;;2.65;;
64684;SDS011;51109;47.414;18.954;2023-07-02T12:48:34;4.15;;;2.78;;
64684;SDS011;51109;47.414;18.954;2023-07-02T12:51:00;5.07;;;2.40;;
64684;SDS011;51109;47.414;18.954;2023-07-02T12:53:26;3.65;;;2.28;;
64684;SDS011;51109;47.414;18.954;2023-07-02T12:55:53;7.00;;;2.50;;
64684;SDS011;51109;47.414;18.954;2023-07-02T12:58:20;2.40;;;2.20;;
64684;SDS011;51109;47.414;18.954;2023-07-02T13:00:46;7.88;;;2.33;;
64684;SDS011;51109;47.414;18.954;2023-07-02T13:03:12;2.88;;;2.17;;
64684;SDS011;51109;47.414;18.954;2023-07-02T13:05:39;3.88;;;2.97;;
64684;SDS011;51109;47.414;18.954;2023-07-02T13:08:05;1.92;;;1.80;;
64684;SDS011;51109;47.414;18.954;2023-07-02T13:10:32;4.55;;;2.15;;
64684;SDS011;51109;47.414;18.954;2023-07-02T13:12:59;4.40;;;1.80;;
64684;SDS011;51109;47.414;18.954;2023-07-02T13:15:25;2.13;;;1.80;;
64684;SDS011;51109;47.414;18.954;2023-07-02T13:17:51;3.63;;;1.75;;
64684;SDS011;51109;47.414;18.954;2023-07-02T13:20:17;1.60;;;1.50;;
64684;SDS011;51109;47.414;18.954;2023-07-02T13:22:43;2.20;;;1.60;;
64684;SDS011;51109;47.414;18.954;2023-07-02T13:25:09;2.83;;;1.63;;
64684;SDS011;51109;47.414;18.954;2023-07-02T13:27:35;1.50;;;1.40;;
64684;SDS011;51109;47.414;18.954;2023-07-02T13:30:02;1.40;;;1.30;;
64684;SDS011;51109;47.414;18.954;2023-07-02T13:32:28;1.33;;;1.23;;
64684;SDS011;51109;47.414;18.954;2023-07-02T13:34:54;1.40;;;1.30;;
64684;SDS011;51109;47.414;18.954;2023-07-02T13:37:20;1.98;;;1.23;;
64684;SDS011;51109;47.414;18.954;2023-07-02T13:39:46;0.90;;;0.90;;
64684;SDS011;51109;47.414;18.954;2023-07-02T13:42:12;1.27;;;1.17;;
64684;SDS011;51109;47.414;18.954;2023-07-02T13:44:38;1.70;;;1.10;;
64684;SDS011;51109;47.414;18.954;2023-07-02T13:47:05;1.02;;;1.00;;
64684;SDS011;51109;47.414;18.954;2023-07-02T13:49:32;2.33;;;1.30;;
64684;SDS011;51109;47.414;18.954;2023-07-02T13:51:58;1.98;;;1.38;;
64684;SDS011;51109;47.414;18.954;2023-07-02T13:54:25;2.20;;;1.40;;
64684;SDS011;51109;47.414;18.954;2023-07-02T13:56:51;1.52;;;1.33;;
64684;SDS011;51109;47.414;18.954;2023-07-02T13:59:18;1.60;;;1.50;;
64684;SDS011;51109;47.414;18.954;2023-07-02T14:01:45;1.30;;;1.20;;
64684;SDS011;51109;47.414;18.954;2023-07-02T14:04:12;1.65;;;1.55;;
64684;SDS011;51109;47.414;18.954;2023-07-02T14:06:39;1.45;;;1.35;;
64684;SDS011;51109;47.414;18.954;2023-07-02T14:09:05;1.80;;;1.67;;
64684;SDS011;51109;47.414;18.954;2023-07-02T14:11:32;1.58;;;1.35;;
64684;SDS011;51109;47.414;18.954;2023-07-02T14:13:59;4.70;;;1.40;;
64684;SDS011;51109;47.414;18.954;2023-07-02T14:16:25;1.85;;;1.70;;
64684;SDS011;51109;47.414;18.954;2023-07-02T14:18:51;2.88;;;1.70;;
64684;SDS011;51109;47.414;18.954;2023-07-02T14:21:17;4.07;;;1.80;;
64684;SDS011;51109;47.414;18.954;2023-07-02T14:23:43;1.70;;;1.60;;
64684;SDS011;51109;47.414;18.954;2023-07-02T14:26:09;3.92;;;1.67;;
64684;SDS011;51109;47.414;18.954;2023-07-02T14:28:35;2.70;;;1.92;;
64684;SDS011;51109;47.414;18.954;2023-07-02T14:31:02;1.95;;;1.75;;
64684;SDS011;51109;47.414;18.954;2023-07-02T14:33:30;3.83;;;1.50;;
64684;SDS011;51109;47.414;18.954;2023-07-02T14:35:58;1.83;;;1.70;;
64684;SDS011;51109;47.414;18.954;2023-07-02T14:38:24;1.80;;;1.70;;